Time;durP1;ratioP1;P1;durP2;ratioP2;P2;SDS_P1;SDS_P2;PMS_P1;PMS_P2;Temp;Humidity;BMP_temperature;BMP_pressure;BME280_temperature;BME280_humidity;BME280_pressure;Samples;Min_cycle;Max_cycle;Signal;HPM_P1;HPM_P2
2022/09/26 00:00:21;;;;;;;595.55;537.75;;;14.90;99.90;;;;;;5050532;28;20278;-74
2022/09/26 00:02:47;;;;;;;586.40;528.67;;;14.90;99.90;;;;;;5051065;28;20237;-77
2022/09/26 00:05:14;;;;;;;580.28;523.40;;;14.90;99.90;;;;;;5050033;28;20227;-74
2022/09/26 00:07:41;;;;;;;595.72;537.75;;;14.80;99.90;;;;;;5045430;28;20202;-74
2022/09/26 00:10:08;;;;;;;595.30;537.30;;;14.90;99.90;;;;;;5045342;28;20199;-75
2022/09/26 00:12:35;;;;;;;573.55;516.65;;;14.90;99.90;;;;;;5050879;28;20199;-76
2022/09/26 00:15:02;;;;;;;588.95;531.50;;;14.90;99.90;;;;;;5049838;28;20274;-74
2022/09/26 00:17:30;;;;;;;569.30;512.22;;;14.90;99.90;;;;;;5045081;28;20223;-74
2022/09/26 00:19:57;;;;;;;579.80;522.53;;;14.80;99.90;;;;;;5050291;28;20201;-78
2022/09/26 00:22:24;;;;;;;601.90;543.70;;;14.80;99.90;;;;;;5048474;28;20694;-76
2022/09/26 00:24:51;;;;;;;600.25;542.45;;;14.80;99.90;;;;;;5046679;28;20209;-75
2022/09/26 00:27:19;;;;;;;586.70;529.28;;;14.80;99.90;;;;;;5048590;28;20197;-77
2022/09/26 00:29:46;;;;;;;598.97;540.95;;;14.80;99.90;;;;;;5050697;28;20272;-76
2022/09/26 00:32:13;;;;;;;590.33;532.63;;;14.80;99.90;;;;;;5044221;28;20201;-75
2022/09/26 00:34:41;;;;;;;579.15;521.58;;;14.80;99.90;;;;;;5047852;28;20194;-76
2022/09/26 00:37:08;;;;;;;588.80;531.20;;;14.80;99.90;;;;;;5047007;28;20204;-75
2022/09/26 00:39:34;;;;;;;580.20;523.30;;;14.70;99.90;;;;;;5045067;28;20280;-76
2022/09/26 00:42:01;;;;;;;583.00;525.92;;;14.80;99.90;;;;;;5048239;28;20245;-75
2022/09/26 00:44:43;;;;;;;589.28;532.00;;;14.80;99.90;;;;;;5050318;28;20282;-75
2022/09/26 00:47:32;;;;;;;578.75;521.65;;;14.80;99.90;;;;;;5042150;28;20197;-78
2022/09/26 00:50:04;;;;;;;580.17;522.65;;;14.70;99.90;;;;;;5048150;28;20663;-75
2022/09/26 00:52:34;;;;;;;589.88;531.90;;;14.70;99.90;;;;;;5048138;28;20206;-76
2022/09/26 00:55:05;;;;;;;584.35;526.95;;;14.70;99.90;;;;;;5045431;28;21157;-75
2022/09/26 00:57:36;;;;;;;590.88;533.53;;;14.70;99.90;;;;;;5049475;28;20201;-75
2022/09/26 01:00:07;;;;;;;592.03;534.65;;;14.70;99.90;;;;;;5050671;28;20200;-77
2022/09/26 01:02:34;;;;;;;571.45;514.30;;;14.70;99.90;;;;;;5043602;28;20284;-73
2022/09/26 01:05:05;;;;;;;591.13;532.78;;;14.70;99.90;;;;;;5048000;28;20193;-74
2022/09/26 01:07:33;;;;;;;576.90;520.00;;;14.70;99.90;;;;;;5049839;28;20193;-75
2022/09/26 01:10:02;;;;;;;577.28;519.50;;;14.70;99.90;;;;;;5047441;28;20594;-76
2022/09/26 01:12:29;;;;;;;572.45;514.95;;;14.60;99.90;;;;;;5048798;28;20208;-76
2022/09/26 01:14:56;;;;;;;595.90;536.95;;;14.60;99.90;;;;;;5048756;28;20197;-76
2022/09/26 01:17:24;;;;;;;577.20;518.70;;;14.60;99.90;;;;;;5044689;28;20211;-76
2022/09/26 01:20:07;;;;;;;585.88;527.35;;;14.60;99.90;;;;;;5048189;28;20207;-76
2022/09/26 01:23:10;;;;;;;581.85;522.28;;;14.60;99.90;;;;;;5050912;28;20196;-75
2022/09/26 01:26:04;;;;;;;570.15;515.20;;;14.60;99.90;;;;;;5048037;28;20659;-76
2022/09/26 01:28:48;;;;;;;558.67;504.67;;;14.60;99.90;;;;;;5049295;28;20209;-78
2022/09/26 01:31:22;;;;;;;560.08;505.42;;;14.60;99.90;;;;;;5046455;28;20197;-76
2022/09/26 01:33:58;;;;;;;579.80;524.78;;;14.60;99.90;;;;;;5052035;28;20196;-77
2022/09/26 01:36:48;;;;;;;572.45;517.05;;;14.60;99.90;;;;;;5049265;28;20191;-76
2022/09/26 01:39:28;;;;;;;574.10;518.28;;;14.60;99.90;;;;;;5048862;28;20212;-75
2022/09/26 01:42:07;;;;;;;562.22;507.05;;;14.60;99.90;;;;;;5044913;28;20196;-75
2022/09/26 01:44:40;;;;;;;582.75;527.10;;;14.50;99.90;;;;;;5049345;28;20226;-74
2022/09/26 01:47:15;;;;;;;589.80;533.63;;;14.50;99.90;;;;;;5045287;28;20286;-75
2022/09/26 01:49:51;;;;;;;578.53;523.08;;;14.60;99.90;;;;;;5046691;28;20194;-76
2022/09/26 01:52:23;;;;;;;576.83;522.22;;;14.50;99.90;;;;;;5050926;28;20199;-75
2022/09/26 01:54:54;;;;;;;569.10;514.47;;;14.50;99.90;;;;;;5045805;28;20200;-75
2022/09/26 01:57:32;;;;;;;567.70;512.55;;;14.50;99.90;;;;;;5047924;28;20206;-74
2022/09/26 02:00:01;;;;;;;560.38;505.88;;;14.50;99.90;;;;;;5041804;28;20263;-75
2022/09/26 02:02:34;;;;;;;575.17;519.88;;;14.50;99.90;;;;;;5047987;28;20208;-75
2022/09/26 02:05:06;;;;;;;567.53;512.40;;;14.50;99.90;;;;;;5049766;28;20221;-75
2022/09/26 02:07:39;;;;;;;574.55;519.58;;;14.50;99.90;;;;;;5054067;28;20558;-75
2022/09/26 02:10:10;;;;;;;551.50;497.23;;;14.50;99.90;;;;;;5050634;28;20198;-75
2022/09/26 02:12:41;;;;;;;556.13;501.63;;;14.50;99.90;;;;;;5045536;28;20204;-75
2022/09/26 02:15:14;;;;;;;553.55;498.38;;;14.50;99.90;;;;;;5053025;28;20210;-78
2022/09/26 02:17:46;;;;;;;557.70;503.35;;;14.50;99.90;;;;;;5048403;28;20211;-75
2022/09/26 02:20:18;;;;;;;552.85;498.00;;;14.50;99.90;;;;;;5050834;28;20231;-76
2022/09/26 02:22:45;;;;;;;579.10;523.30;;;14.50;99.90;;;;;;5053854;28;20204;-75
2022/09/26 02:25:12;;;;;;;553.92;499.30;;;14.50;99.90;;;;;;5048414;28;20229;-76
2022/09/26 02:27:39;;;;;;;556.15;501.38;;;14.50;99.90;;;;;;5051593;28;20199;-75
2022/09/26 02:30:06;;;;;;;566.95;511.80;;;14.50;99.90;;;;;;5049568;28;20612;-77
2022/09/26 02:32:34;;;;;;;579.05;523.95;;;14.50;99.90;;;;;;5048782;28;20227;-76
2022/09/26 02:35:52;;;;;;;564.25;510.08;;;14.50;99.90;;;;;;5051824;28;20196;-76
2022/09/26 02:38:00;;;;;;;544.13;490.25;;;14.40;99.90;;;;;;5052873;28;20192;-75
2022/09/26 02:40:36;;;;;;;558.85;503.95;;;14.40;99.90;;;;;;5043900;28;20199;-75
2022/09/26 02:43:22;;;;;;;558.22;503.30;;;14.40;99.90;;;;;;5042490;28;20200;-79
2022/09/26 02:45:53;;;;;;;566.38;511.33;;;14.40;99.90;;;;;;5049872;28;20196;-76
2022/09/26 02:48:49;;;;;;;547.83;493.38;;;14.40;99.90;;;;;;5052626;28;20547;-74
2022/09/26 02:51:31;;;;;;;556.90;502.08;;;14.40;99.90;;;;;;5049943;28;20200;-75
2022/09/26 02:54:12;;;;;;;541.30;487.10;;;14.40;99.90;;;;;;5051148;28;20201;-75
2022/09/26 02:56:52;;;;;;;553.25;499.00;;;14.40;99.90;;;;;;5044587;28;20197;-76
2022/09/26 02:59:21;;;;;;;558.05;503.00;;;14.40;99.90;;;;;;5046914;28;20195;-76
2022/09/26 03:01:55;;;;;;;567.53;512.28;;;14.40;99.90;;;;;;5045278;28;20191;-75
2022/09/26 03:04:31;;;;;;;569.03;514.03;;;14.40;99.90;;;;;;5050014;28;20225;-74
2022/09/26 03:07:04;;;;;;;557.53;503.02;;;14.40;99.90;;;;;;5047572;28;20650;-77
2022/09/26 03:09:31;;;;;;;561.28;506.42;;;14.40;99.90;;;;;;5049466;28;21714;-75
2022/09/26 03:12:01;;;;;;;571.50;516.65;;;14.40;99.90;;;;;;5049369;28;20196;-76
2022/09/26 03:14:31;;;;;;;569.20;513.90;;;14.40;99.90;;;;;;5042739;28;20202;-75
2022/09/26 03:16:58;;;;;;;557.17;502.73;;;14.40;99.90;;;;;;5047112;28;20222;-75
2022/09/26 03:19:31;;;;;;;558.58;503.70;;;14.40;99.90;;;;;;5050294;28;20186;-77
2022/09/26 03:22:00;;;;;;;549.08;494.33;;;14.40;99.90;;;;;;5052358;28;20233;-75
2022/09/26 03:24:28;;;;;;;549.10;494.02;;;14.40;99.90;;;;;;5052324;28;20225;-74
2022/09/26 03:26:55;;;;;;;570.60;515.17;;;14.30;99.90;;;;;;5043516;28;20195;-75
2022/09/26 03:29:22;;;;;;;572.72;516.58;;;14.40;99.90;;;;;;5050012;28;20252;-76
2022/09/26 03:31:49;;;;;;;553.40;497.80;;;14.30;99.90;;;;;;5041597;28;20198;-74
2022/09/26 03:34:16;;;;;;;564.20;508.20;;;14.30;99.90;;;;;;5052005;28;20223;-74
2022/09/26 03:36:44;;;;;;;555.25;499.55;;;14.30;99.90;;;;;;5049317;28;20220;-73
2022/09/26 03:39:12;;;;;;;557.08;501.42;;;14.30;99.90;;;;;;5051782;28;20191;-79
2022/09/26 03:41:39;;;;;;;546.42;491.13;;;14.30;99.90;;;;;;5046624;28;20671;-75
2022/09/26 03:44:06;;;;;;;560.13;504.00;;;14.30;99.90;;;;;;5047745;28;20218;-75
2022/09/26 03:46:33;;;;;;;555.45;499.75;;;14.30;99.90;;;;;;5044450;28;20205;-75
2022/09/26 03:48:59;;;;;;;539.90;485.38;;;14.30;99.90;;;;;;5051356;28;20249;-74
2022/09/26 03:51:26;;;;;;;532.55;478.70;;;14.30;99.90;;;;;;5043725;28;20195;-74
2022/09/26 03:53:53;;;;;;;554.47;499.48;;;14.30;99.90;;;;;;5050361;28;20625;-74
2022/09/26 03:56:22;;;;;;;547.42;493.17;;;14.30;99.90;;;;;;5049762;28;20650;-75
2022/09/26 03:58:48;;;;;;;550.55;496.08;;;14.30;99.90;;;;;;5050389;28;20191;-75
2022/09/26 04:01:17;;;;;;;556.95;502.75;;;14.30;99.90;;;;;;5042340;28;20305;-74
2022/09/26 04:03:45;;;;;;;545.90;492.67;;;14.30;99.90;;;;;;5048269;28;20245;-75
2022/09/26 04:06:14;;;;;;;556.50;503.05;;;14.30;99.90;;;;;;5050438;28;20195;-75
2022/09/26 04:08:42;;;;;;;552.78;499.17;;;14.30;99.90;;;;;;5050741;28;20191;-75
2022/09/26 04:11:11;;;;;;;556.50;503.60;;;14.30;99.90;;;;;;5043126;28;20192;-76
2022/09/26 04:13:39;;;;;;;551.33;498.13;;;14.30;99.90;;;;;;5042175;28;20192;-75
2022/09/26 04:16:08;;;;;;;552.72;498.83;;;14.30;99.90;;;;;;5044468;28;20227;-74
2022/09/26 04:18:35;;;;;;;553.75;500.35;;;14.30;99.90;;;;;;5042621;28;20282;-75
2022/09/26 04:21:05;;;;;;;545.97;492.90;;;14.30;99.90;;;;;;5046704;28;20190;-76
2022/09/26 04:23:34;;;;;;;548.42;495.33;;;14.30;99.90;;;;;;5050407;28;20202;-75
2022/09/26 04:26:03;;;;;;;550.28;496.90;;;14.30;99.90;;;;;;5042777;28;20933;-76
2022/09/26 04:28:30;;;;;;;547.85;494.80;;;14.30;99.90;;;;;;5049555;28;20746;-75
2022/09/26 04:30:59;;;;;;;545.67;492.75;;;14.30;99.90;;;;;;5047135;28;20281;-75
2022/09/26 04:33:27;;;;;;;540.15;486.70;;;14.30;99.90;;;;;;5050331;28;20269;-75
2022/09/26 04:35:54;;;;;;;542.17;489.73;;;14.30;99.90;;;;;;5049115;28;20191;-75
2022/09/26 04:38:20;;;;;;;553.50;500.55;;;14.20;99.90;;;;;;5049961;28;20191;-75
2022/09/26 04:40:47;;;;;;;553.47;499.65;;;14.20;99.90;;;;;;5039879;28;20207;-74
2022/09/26 04:43:14;;;;;;;549.85;496.73;;;14.20;99.90;;;;;;5048988;28;20653;-74
2022/09/26 04:45:42;;;;;;;547.80;494.52;;;14.20;99.90;;;;;;5047578;28;20337;-74
2022/09/26 04:48:10;;;;;;;549.55;496.13;;;14.20;99.90;;;;;;5046869;28;20194;-74
2022/09/26 04:50:36;;;;;;;543.72;490.35;;;14.20;99.90;;;;;;5048146;28;20203;-77
2022/09/26 04:53:05;;;;;;;552.53;498.67;;;14.20;99.90;;;;;;5050047;28;20716;-77
2022/09/26 04:55:32;;;;;;;553.10;498.95;;;14.20;99.90;;;;;;5045405;28;20246;-81
2022/09/26 04:57:58;;;;;;;545.42;491.10;;;14.20;99.90;;;;;;5046097;28;20197;-74
2022/09/26 05:00:25;;;;;;;541.85;487.27;;;14.10;99.90;;;;;;5046798;28;20248;-79
2022/09/26 05:02:52;;;;;;;541.42;487.27;;;14.10;99.90;;;;;;5044478;28;20249;-75
2022/09/26 05:05:21;;;;;;;549.40;494.40;;;14.10;99.90;;;;;;5049670;28;20654;-78
2022/09/26 05:07:48;;;;;;;553.17;498.58;;;14.10;99.90;;;;;;5045827;28;20195;-75
2022/09/26 05:10:14;;;;;;;528.08;473.35;;;14.10;99.90;;;;;;5044324;28;20199;-75
2022/09/26 05:12:41;;;;;;;528.88;474.77;;;14.10;99.90;;;;;;5048030;28;20194;-77
2022/09/26 05:15:10;;;;;;;550.33;495.63;;;14.10;99.90;;;;;;5048786;28;20195;-76
2022/09/26 05:17:37;;;;;;;544.08;489.83;;;14.10;99.90;;;;;;5048272;28;20210;-74
2022/09/26 05:20:07;;;;;;;542.95;488.55;;;14.10;99.90;;;;;;5049210;28;20835;-77
2022/09/26 05:22:36;;;;;;;563.78;508.33;;;14.10;99.90;;;;;;5041575;28;20573;-76
2022/09/26 05:27:48;;;;;;;548.38;493.23;;;14.10;99.90;;;;;;5043265;28;20577;-77
2022/09/26 05:30:14;;;;;;;535.33;480.63;;;14.10;99.90;;;;;;5049063;28;20207;-75
2022/09/26 05:32:44;;;;;;;542.50;487.52;;;14.10;99.90;;;;;;5046509;28;20187;-75
2022/09/26 05:35:11;;;;;;;541.03;485.88;;;14.10;99.90;;;;;;5050893;28;20282;-78
2022/09/26 05:37:39;;;;;;;544.97;490.13;;;14.10;99.90;;;;;;5053210;28;20195;-76
2022/09/26 05:42:50;;;;;;;548.10;492.25;;;14.10;99.90;;;;;;5052136;28;20269;-75
2022/09/26 05:45:18;;;;;;;534.53;479.00;;;14.10;99.90;;;;;;5052565;28;20223;-75
2022/09/26 05:47:47;;;;;;;546.47;488.33;;;14.10;99.90;;;;;;5048413;28;20199;-74
2022/09/26 05:50:14;;;;;;;664.28;605.85;;;14.00;99.90;;;;;;5051605;28;20498;-74
2022/09/26 05:52:43;;;;;;;589.05;533.88;;;14.00;99.90;;;;;;5050372;28;20542;-74
2022/09/26 05:55:10;;;;;;;576.55;520.30;;;13.90;99.90;;;;;;5048437;28;20191;-74
2022/09/26 05:57:37;;;;;;;538.53;483.33;;;13.90;99.90;;;;;;5051375;28;20274;-74
2022/09/26 06:00:06;;;;;;;541.08;485.40;;;13.90;99.90;;;;;;5050441;28;20195;-74
2022/09/26 06:02:33;;;;;;;529.17;474.15;;;13.90;99.90;;;;;;5049834;28;20229;-75
2022/09/26 06:05:00;;;;;;;519.05;464.52;;;13.90;99.90;;;;;;5052642;28;20785;-82
2022/09/26 06:07:27;;;;;;;536.53;481.30;;;13.90;99.90;;;;;;5052223;28;20549;-75
2022/09/26 06:09:55;;;;;;;527.33;472.05;;;13.90;99.90;;;;;;5050675;28;20191;-73
2022/09/26 06:12:22;;;;;;;531.92;476.75;;;14.00;99.90;;;;;;5051017;28;20199;-77
2022/09/26 06:14:49;;;;;;;524.88;470.08;;;14.00;99.90;;;;;;5052148;28;20561;-77
2022/09/26 06:17:15;;;;;;;548.13;491.83;;;13.90;99.90;;;;;;5045853;28;20219;-75
2022/09/26 06:19:42;;;;;;;536.25;480.73;;;14.00;99.90;;;;;;5053294;28;20249;-75
2022/09/26 06:22:08;;;;;;;538.92;482.63;;;14.00;99.90;;;;;;5051042;28;20199;-76
2022/09/26 06:24:35;;;;;;;536.05;480.10;;;14.00;99.90;;;;;;5049476;28;20226;-76
2022/09/26 06:27:03;;;;;;;535.53;479.23;;;14.10;99.90;;;;;;5048265;28;20617;-73
2022/09/26 06:29:31;;;;;;;558.00;501.35;;;14.10;99.90;;;;;;5049254;28;20207;-74
2022/09/26 06:31:58;;;;;;;555.45;499.13;;;14.10;99.90;;;;;;5045720;28;20558;-74
2022/09/26 06:34:25;;;;;;;558.95;501.58;;;14.20;99.90;;;;;;5049657;28;20203;-76
2022/09/26 06:36:51;;;;;;;551.05;493.45;;;14.30;99.90;;;;;;5050852;28;20290;-74
2022/09/26 06:39:18;;;;;;;563.70;504.48;;;14.40;99.90;;;;;;5047911;28;20202;-74
2022/09/26 06:41:45;;;;;;;557.63;501.15;;;14.40;99.90;;;;;;5052024;28;20187;-75
2022/09/26 06:44:13;;;;;;;555.58;498.90;;;14.50;99.90;;;;;;5049011;28;20195;-74
2022/09/26 06:46:39;;;;;;;559.92;503.65;;;14.50;99.90;;;;;;5044340;28;20536;-74
2022/09/26 06:49:06;;;;;;;573.17;516.67;;;14.60;99.90;;;;;;5050613;28;20200;-74
2022/09/26 06:51:33;;;;;;;569.75;513.70;;;14.60;99.90;;;;;;5045309;28;20203;-75
2022/09/26 06:54:00;;;;;;;566.35;511.08;;;14.60;99.90;;;;;;5050618;28;20677;-74
2022/09/26 06:56:27;;;;;;;579.95;525.15;;;14.60;99.90;;;;;;5045334;28;20205;-75
2022/09/26 06:58:53;;;;;;;569.20;514.60;;;14.60;99.90;;;;;;5050112;28;20265;-75
2022/09/26 07:01:21;;;;;;;565.30;510.98;;;14.70;99.90;;;;;;5045209;28;20195;-74
2022/09/26 07:03:48;;;;;;;554.55;500.95;;;14.70;99.90;;;;;;5047200;28;20199;-74
2022/09/26 07:06:16;;;;;;;573.92;519.53;;;14.70;99.90;;;;;;5042029;28;20229;-74
2022/09/26 07:08:43;;;;;;;576.30;521.50;;;14.70;99.90;;;;;;5049176;28;20538;-75
2022/09/26 07:11:10;;;;;;;546.08;492.98;;;14.60;99.90;;;;;;5042791;28;20214;-75
2022/09/26 07:13:37;;;;;;;560.55;507.13;;;14.60;99.90;;;;;;5041284;28;20194;-75
2022/09/26 07:16:04;;;;;;;564.85;511.92;;;14.60;99.90;;;;;;5048758;28;20219;-76
2022/09/26 07:18:32;;;;;;;568.13;514.78;;;14.60;99.90;;;;;;5052034;28;20192;-74
2022/09/26 07:20:59;;;;;;;569.30;515.88;;;14.60;99.90;;;;;;5049914;28;20196;-74
2022/09/26 07:23:25;;;;;;;550.70;497.75;;;14.60;99.90;;;;;;5051766;28;20253;-73
2022/09/26 07:25:52;;;;;;;559.35;505.58;;;14.60;99.90;;;;;;5047126;28;20226;-74
2022/09/26 07:28:19;;;;;;;572.55;518.83;;;14.60;99.90;;;;;;5051297;28;20217;-74
2022/09/26 07:30:45;;;;;;;553.40;500.55;;;14.60;99.90;;;;;;5047654;28;20260;-75
2022/09/26 07:33:12;;;;;;;558.38;505.02;;;14.60;99.90;;;;;;5048829;28;20191;-74
2022/09/26 07:35:43;;;;;;;555.08;501.40;;;14.60;99.90;;;;;;5049967;28;20195;-75
2022/09/26 07:38:11;;;;;;;546.53;493.70;;;14.60;99.90;;;;;;5052408;28;20195;-76
2022/09/26 07:40:39;;;;;;;555.40;501.30;;;14.60;99.90;;;;;;5041015;28;20282;-76
2022/09/26 07:43:06;;;;;;;567.53;513.67;;;14.50;99.90;;;;;;5050925;28;20448;-76
2022/09/26 07:51:03;;;;;;;530.42;476.98;;;14.50;99.90;;;;;;5045844;28;20198;-76
2022/09/26 07:53:30;;;;;;;555.25;500.75;;;14.50;99.90;;;;;;5047226;28;20244;-78
2022/09/26 07:56:06;;;;;;;550.00;496.60;;;14.50;99.90;;;;;;5047135;28;20261;-77
2022/09/26 07:58:34;;;;;;;571.80;517.40;;;14.50;99.90;;;;;;5051610;28;20194;-76
2022/09/26 08:01:02;;;;;;;549.10;494.92;;;14.50;99.90;;;;;;5039236;28;20192;-76
2022/09/26 08:03:29;;;;;;;557.22;503.45;;;14.50;99.90;;;;;;5047457;28;20195;-77
2022/09/26 08:05:59;;;;;;;570.00;515.20;;;14.50;99.90;;;;;;5045464;28;20229;-76
2022/09/26 08:08:28;;;;;;;556.03;502.25;;;14.50;99.90;;;;;;5046083;28;20210;-76
2022/09/26 08:10:56;;;;;;;549.60;496.35;;;14.50;99.90;;;;;;5051811;28;20199;-76
2022/09/26 08:13:23;;;;;;;555.80;502.13;;;14.50;99.90;;;;;;5050318;28;20205;-77
2022/09/26 08:15:50;;;;;;;558.25;504.95;;;14.50;99.90;;;;;;5037534;28;20269;-75
2022/09/26 08:18:17;;;;;;;554.65;501.50;;;14.50;99.90;;;;;;5048087;28;20207;-74
2022/09/26 08:20:46;;;;;;;570.00;516.15;;;14.50;99.90;;;;;;5044967;28;20258;-74
2022/09/26 08:23:13;;;;;;;562.38;508.23;;;14.50;99.90;;;;;;5046266;28;20198;-77
2022/09/26 08:25:41;;;;;;;532.88;479.38;;;14.50;99.90;;;;;;5043847;28;20214;-73
2022/09/26 08:28:11;;;;;;;552.03;499.10;;;14.50;99.90;;;;;;5052233;28;20650;-74
2022/09/26 08:30:39;;;;;;;542.65;490.35;;;14.60;99.90;;;;;;5045975;28;20292;-75
2022/09/26 08:33:07;;;;;;;546.40;493.30;;;14.60;99.90;;;;;;5047812;28;20251;-74
2022/09/26 08:35:37;;;;;;;580.85;526.35;;;14.50;99.90;;;;;;5048775;28;20198;-74
2022/09/26 08:38:05;;;;;;;558.42;504.65;;;14.60;99.90;;;;;;5041630;28;20282;-74
2022/09/26 08:40:42;;;;;;;554.10;500.15;;;14.60;99.90;;;;;;5050400;28;20222;-75
2022/09/26 08:43:28;;;;;;;565.53;511.65;;;14.60;99.90;;;;;;5050925;28;20282;-75
2022/09/26 08:46:30;;;;;;;556.83;503.33;;;14.60;99.90;;;;;;5047484;28;20209;-74
2022/09/26 08:49:25;;;;;;;535.45;482.15;;;14.60;99.90;;;;;;5043091;28;20225;-75
2022/09/26 08:51:54;;;;;;;570.08;516.35;;;14.60;99.90;;;;;;5031905;28;20221;-75
2022/09/26 08:54:35;;;;;;;548.47;494.70;;;14.60;99.90;;;;;;5044498;28;20201;-76
2022/09/26 08:57:06;;;;;;;542.08;488.50;;;14.60;99.90;;;;;;5047187;28;20191;-77
2022/09/26 08:59:40;;;;;;;548.35;494.65;;;14.60;99.90;;;;;;5048965;28;20196;-79
2022/09/26 09:02:20;;;;;;;544.60;490.60;;;14.60;99.90;;;;;;5040985;28;20770;-76
2022/09/26 09:04:52;;;;;;;551.42;497.65;;;14.60;99.90;;;;;;5046421;28;20600;-74
2022/09/26 09:07:22;;;;;;;556.30;502.85;;;14.60;99.90;;;;;;5048910;28;20213;-74
2022/09/26 09:09:49;;;;;;;560.95;507.33;;;14.60;99.90;;;;;;5050110;28;20282;-75
2022/09/26 09:12:25;;;;;;;545.30;492.42;;;14.60;99.90;;;;;;5053374;28;20208;-76
2022/09/26 09:15:06;;;;;;;560.50;506.98;;;14.60;99.90;;;;;;5048783;28;20584;-79
2022/09/26 09:17:40;;;;;;;560.25;506.85;;;14.60;99.90;;;;;;5048191;28;20227;-73
2022/09/26 09:20:15;;;;;;;552.83;498.67;;;14.60;99.90;;;;;;5053515;28;20197;-77
2022/09/26 09:22:54;;;;;;;551.58;497.63;;;14.60;99.90;;;;;;5049481;28;20211;-76
2022/09/26 09:25:23;;;;;;;546.10;493.05;;;14.50;99.90;;;;;;5047987;28;20238;-75
2022/09/26 09:28:06;;;;;;;553.97;500.38;;;14.60;99.90;;;;;;5050365;28;20667;-74
2022/09/26 09:30:41;;;;;;;555.55;502.40;;;14.60;99.90;;;;;;5053152;28;20195;-76
2022/09/26 09:33:14;;;;;;;548.88;495.38;;;14.50;99.90;;;;;;5049355;28;20291;-77
2022/09/26 09:35:46;;;;;;;557.92;504.83;;;14.60;99.90;;;;;;5041133;28;20600;-74
2022/09/26 09:38:17;;;;;;;551.92;498.75;;;14.60;99.90;;;;;;5045024;28;20191;-79
2022/09/26 09:40:51;;;;;;;542.05;488.85;;;14.50;99.90;;;;;;5049022;28;20199;-74
2022/09/26 09:43:25;;;;;;;545.50;492.13;;;14.60;99.90;;;;;;5052035;28;20211;-77
2022/09/26 09:45:58;;;;;;;559.78;506.05;;;14.50;99.90;;;;;;5044970;28;20281;-75
2022/09/26 09:48:27;;;;;;;559.10;505.23;;;14.50;99.90;;;;;;5050844;28;20713;-77
2022/09/26 09:51:09;;;;;;;562.67;508.90;;;14.60;99.90;;;;;;5050374;28;20223;-74
2022/09/26 09:54:01;;;;;;;557.83;504.02;;;14.60;99.90;;;;;;5050600;28;20399;-73
2022/09/26 09:56:35;;;;;;;542.63;489.35;;;14.50;99.90;;;;;;5050640;28;20620;-76
2022/09/26 09:59:17;;;;;;;552.20;498.25;;;14.60;99.90;;;;;;5050420;28;20192;-74
2022/09/26 10:01:50;;;;;;;546.38;492.50;;;14.60;99.90;;;;;;5045321;28;20199;-74
2022/09/26 10:04:28;;;;;;;548.03;494.42;;;14.50;99.90;;;;;;5047988;28;20192;-74
2022/09/26 10:06:55;;;;;;;539.33;485.65;;;14.50;99.90;;;;;;5046950;28;20273;-78
2022/09/26 10:09:26;;;;;;;555.72;501.02;;;14.50;99.90;;;;;;5049589;28;20283;-75
2022/09/26 10:11:54;;;;;;;552.80;497.98;;;14.50;99.90;;;;;;5053730;28;20644;-76
2022/09/26 10:14:27;;;;;;;558.35;503.40;;;14.50;99.90;;;;;;5052190;28;20194;-74
2022/09/26 10:17:19;;;;;;;553.47;498.83;;;14.50;99.90;;;;;;5047145;28;20387;-76
2022/09/26 10:19:46;;;;;;;543.17;488.17;;;14.50;99.90;;;;;;5049110;28;20209;-76
2022/09/26 10:22:24;;;;;;;551.70;496.35;;;14.60;99.90;;;;;;5050183;28;20668;-77
2022/09/26 10:24:53;;;;;;;570.60;514.58;;;14.50;99.90;;;;;;5044723;28;20665;-75
2022/09/26 10:27:25;;;;;;;560.08;504.40;;;14.50;99.90;;;;;;5052267;28;20214;-74
2022/09/26 10:29:59;;;;;;;550.95;495.75;;;14.50;99.90;;;;;;5052046;28;20216;-74
2022/09/26 10:32:27;;;;;;;555.25;499.67;;;14.60;99.90;;;;;;5048280;28;20192;-76
2022/09/26 10:35:17;;;;;;;564.22;507.45;;;14.50;99.90;;;;;;5046403;28;20197;-74
2022/09/26 10:37:48;;;;;;;552.03;496.10;;;14.50;99.90;;;;;;5046436;28;20562;-75
2022/09/26 10:43:21;;;;;;;540.20;485.08;;;14.60;99.90;;;;;;5050152;28;20205;-77
2022/09/26 10:45:49;;;;;;;560.33;504.85;;;14.50;99.90;;;;;;5042178;28;20349;-75
2022/09/26 10:48:20;;;;;;;561.50;505.40;;;14.60;99.90;;;;;;5050894;28;20195;-75
2022/09/26 10:50:50;;;;;;;559.15;503.63;;;14.60;99.90;;;;;;5041736;28;20198;-74
2022/09/26 10:53:21;;;;;;;562.40;506.45;;;14.60;99.90;;;;;;5052253;28;20205;-75
2022/09/26 10:55:56;;;;;;;586.63;529.65;;;14.60;99.90;;;;;;5046327;28;20287;-73
2022/09/26 10:58:28;;;;;;;555.22;499.77;;;14.60;99.90;;;;;;5051907;28;20199;-75
2022/09/26 11:00:59;;;;;;;555.85;499.77;;;14.60;99.90;;;;;;5037711;28;20188;-73
2022/09/26 11:03:38;;;;;;;560.00;505.08;;;14.70;99.90;;;;;;5049439;28;20189;-74
2022/09/26 11:06:05;;;;;;;566.20;511.13;;;14.70;99.90;;;;;;5051552;28;20225;-73
2022/09/26 11:08:33;;;;;;;566.40;512.00;;;14.70;99.90;;;;;;5052325;28;20241;-74
2022/09/26 11:11:02;;;;;;;559.35;505.08;;;14.60;99.90;;;;;;5049259;28;20225;-75
2022/09/26 11:13:38;;;;;;;572.75;517.20;;;14.70;99.90;;;;;;5049157;28;20225;-77
2022/09/26 11:16:09;;;;;;;564.78;509.52;;;14.70;99.90;;;;;;5042699;28;20222;-74
2022/09/26 11:18:45;;;;;;;577.33;521.63;;;14.70;99.90;;;;;;5050183;28;20199;-75
2022/09/26 11:21:17;;;;;;;559.53;504.35;;;14.70;99.90;;;;;;5049612;28;20207;-85
2022/09/26 11:23:51;;;;;;;571.20;516.17;;;14.70;99.90;;;;;;5048633;28;20231;-78
2022/09/26 11:26:23;;;;;;;559.97;505.33;;;14.70;99.90;;;;;;5049301;28;21137;-73
2022/09/26 11:29:02;;;;;;;565.53;510.98;;;14.70;99.90;;;;;;5049801;28;20192;-76
2022/09/26 11:31:33;;;;;;;570.03;514.67;;;14.70;99.90;;;;;;5039870;28;20199;-76
2022/09/26 11:34:04;;;;;;;562.17;507.17;;;14.70;99.90;;;;;;5046414;28;20535;-77
2022/09/26 11:36:52;;;;;;;564.55;509.33;;;14.70;99.90;;;;;;5050414;28;20261;-81
2022/09/26 11:39:34;;;;;;;558.38;503.42;;;14.70;99.90;;;;;;5047125;28;20321;-75
2022/09/26 11:42:15;;;;;;;563.65;509.08;;;14.70;99.90;;;;;;5039780;28;20196;-76
2022/09/26 11:44:57;;;;;;;554.35;499.70;;;14.70;99.90;;;;;;5043535;28;20223;-77
2022/09/26 11:47:48;;;;;;;546.45;492.45;;;14.60;99.90;;;;;;5045324;28;20609;-76
2022/09/26 11:50:34;;;;;;;552.80;498.60;;;14.60;99.90;;;;;;5048034;28;20187;-76
2022/09/26 11:53:15;;;;;;;551.35;497.00;;;14.70;99.90;;;;;;5051015;28;20282;-73
2022/09/26 11:55:57;;;;;;;550.97;496.67;;;14.70;99.90;;;;;;5045769;28;20195;-74
2022/09/26 11:58:37;;;;;;;555.30;500.63;;;14.70;99.90;;;;;;5046437;28;20685;-76
2022/09/26 12:01:15;;;;;;;554.75;500.05;;;14.70;99.90;;;;;;5040658;28;20195;-77
2022/09/26 12:04:18;;;;;;;565.33;510.02;;;14.70;99.90;;;;;;5038874;28;20194;-77
2022/09/26 12:06:54;;;;;;;557.30;502.20;;;14.70;99.90;;;;;;5048606;28;20218;-75
2022/09/26 12:09:50;;;;;;;588.65;532.60;;;14.80;99.90;;;;;;5050732;28;20251;-77
2022/09/26 12:12:26;;;;;;;556.03;501.40;;;14.70;99.90;;;;;;5043736;28;20195;-75
2022/09/26 12:15:04;;;;;;;578.03;522.53;;;14.80;99.90;;;;;;5045394;28;20561;-76
2022/09/26 12:17:43;;;;;;;570.53;515.47;;;14.80;99.90;;;;;;5046923;28;20276;-77
2022/09/26 12:20:27;;;;;;;574.50;519.30;;;14.80;99.90;;;;;;5044606;28;20189;-76
2022/09/26 12:23:02;;;;;;;568.05;513.03;;;14.80;99.90;;;;;;5048061;28;20489;-73
2022/09/26 12:26:07;;;;;;;616.92;560.08;;;14.80;99.90;;;;;;5041386;28;20612;-75
2022/09/26 12:28:49;;;;;;;571.45;516.95;;;14.90;99.90;;;;;;5049442;28;20681;-75
2022/09/26 12:31:25;;;;;;;543.78;490.58;;;14.90;99.90;;;;;;5045780;28;20679;-75
2022/09/26 12:34:16;;;;;;;562.83;508.52;;;14.90;99.90;;;;;;5041827;28;20192;-74
2022/09/26 12:37:00;;;;;;;570.30;516.10;;;14.90;99.90;;;;;;5049035;28;20195;-75
2022/09/26 12:40:05;;;;;;;567.95;513.30;;;14.90;99.90;;;;;;5044832;28;20292;-74
2022/09/26 12:43:05;;;;;;;563.80;509.27;;;14.90;99.90;;;;;;5047633;28;20193;-74
2022/09/26 12:45:59;;;;;;;555.15;500.63;;;14.90;99.90;;;;;;5020920;28;20196;-74